This is the latest recevied weather packets stored in our database for station/object OK3MS-5. If no packets are shown the sender has not sent any weather packets the latest 1 day(s).
| Time | Temp. | Humidity | Pressure | Rain* | Wind** | Luminosity | Snow |
|---|---|---|---|---|---|---|---|
| 1777949403 | 11.67° C | 69% | 1008.6 hPa | 0 mm | 0 m/s | 0 W/m² | - |
| 1777949107 | 11.67° C | 68% | 1008.7 hPa | 0 mm | 0 m/s | 0 W/m² | - |
| 1777948804 | 11.67° C | 69% | 1008.7 hPa | 0 mm | 0 m/s | 0 W/m² | - |
| 1777948503 | 11.67° C | 69% | 1008.6 hPa | 0 mm | 0 m/s | 0 W/m² | - |
| 1777948206 | 12.22° C | 66% | 1008.6 hPa | 0 mm | 0 m/s | 0 W/m² | - |
| 1777947902 | 12.22° C | 67% | 1008.7 hPa | 0 mm | 0 m/s | 0 W/m² | - |
| 1777947607 | 12.22° C | 63% | 1008.5 hPa | 0 mm | 0 m/s | 0 W/m² | - |
| 1777947304 | 12.22° C | 64% | 1008.7 hPa | 0 mm | 0 m/s | 0 W/m² | - |
| 1777947009 | 12.22° C | 67% | 1008.7 hPa | 0 mm | 0 m/s | 0 W/m² | - |
| 1777946706 | 12.22° C | 63% | 1008.7 hPa | 0 mm | 0 m/s | 0 W/m² | - |
| 1777946404 | 11.67° C | 67% | 1008.7 hPa | 0 mm | 0 m/s | 0 W/m² | - |
| 1777946108 | 12.22° C | 65% | 1008.4 hPa | 0 mm | 0 m/s | 0 W/m² | - |
| 1777945803 | 12.78° C | 61% | 1008.2 hPa | 0 mm | 0 m/s | 0 W/m² | - |
| 1777945509 | 12.78° C | 61% | 1008.3 hPa | 0 mm | 0 m/s | 0 W/m² | - |
| 1777945202 | 13.33° C | 59% | 1008.4 hPa | 0 mm | 0 m/s | 0 W/m² | - |
| 1777944909 | 13.33° C | 60% | 1008.4 hPa | 0 mm | 0 m/s | 0 W/m² | - |
| 1777944604 | 13.33° C | 60% | 1008.4 hPa | 0 mm | 0 m/s | 0 W/m² | - |
| 1777944303 | 13.33° C | 60% | 1008.4 hPa | 0 mm | 0 m/s | 0 W/m² | - |
| 1777944003 | 13.33° C | 59% | 1008.4 hPa | 0 mm | 0 m/s | 0 W/m² | - |
| 1777943704 | 13.33° C | 58% | 1008.6 hPa | 0 mm | 0 m/s | 0 W/m² | - |
| 1777943403 | 13.89° C | 58% | 1008.6 hPa | 0 mm | 0 m/s | 0 W/m² | - |
| 1777943103 | 13.33° C | 58% | 1008.6 hPa | 0 mm | 0.89 m/s, 78° | 0 W/m² | - |
| 1777942805 | 13.33° C | 59% | 1008.8 hPa | 0 mm | 0 m/s | 0 W/m² | - |
| 1777942504 | 13.89° C | 58% | 1008.7 hPa | 0 mm | 0 m/s | 0 W/m² | - |
| 1777942205 | 13.89° C | 59% | 1008.7 hPa | 0 mm | 0 m/s | 0 W/m² | - |
* Rain latest hour (hover to see other rain measurements)
** Current wind speed in m/s (hover to see current wind gust speed)